createdAt,value
2018-08-13T00:01:27.936Z,1.20
2018-08-13T00:03:56.112Z,1.43
2018-08-13T00:06:24.312Z,1.07
2018-08-13T00:08:52.500Z,1.70
2018-08-13T00:11:20.730Z,1.87
2018-08-13T00:13:48.941Z,1.73
2018-08-13T00:16:17.117Z,1.33
2018-08-13T00:18:45.280Z,1.43
2018-08-13T00:21:14.044Z,2.27
2018-08-13T00:23:42.227Z,0.97
2018-08-13T00:26:10.432Z,0.73
2018-08-13T00:28:38.652Z,0.93
2018-08-13T00:31:06.864Z,1.10
2018-08-13T00:33:35.168Z,1.30
2018-08-13T00:36:03.359Z,1.30
2018-08-13T00:38:31.615Z,1.17
2018-08-13T00:40:59.788Z,2.30
2018-08-13T00:43:29.641Z,1.23
2018-08-13T00:45:57.805Z,0.97
2018-08-13T00:48:25.977Z,1.20
2018-08-13T00:50:54.158Z,1.00
2018-08-13T00:53:22.362Z,1.03
2018-08-13T00:55:50.538Z,1.47
2018-08-13T00:58:18.940Z,2.17
2018-08-13T01:00:47.160Z,1.70
2018-08-13T01:03:15.531Z,1.23
2018-08-13T01:05:44.022Z,1.00
2018-08-13T01:08:12.257Z,1.87
2018-08-13T01:10:40.425Z,0.90
2018-08-13T01:13:09.080Z,1.17
2018-08-13T01:15:37.272Z,1.10
2018-08-13T01:18:06.375Z,1.67
2018-08-13T01:20:35.215Z,1.40
2018-08-13T01:23:03.391Z,1.10
2018-08-13T01:25:31.569Z,1.20
2018-08-13T01:27:59.968Z,1.27
2018-08-13T01:30:28.314Z,1.37
2018-08-13T01:32:56.529Z,0.87
2018-08-13T01:35:24.768Z,1.10
2018-08-13T01:37:52.973Z,1.67
2018-08-13T01:40:21.152Z,1.43
2018-08-13T01:42:49.432Z,1.30
2018-08-13T01:45:17.611Z,1.30
2018-08-13T01:47:45.791Z,1.20
2018-08-13T01:50:14.184Z,1.57
2018-08-13T01:52:42.564Z,1.20
2018-08-13T01:55:11.201Z,1.40
2018-08-13T01:57:39.383Z,1.10
2018-08-13T02:00:10.809Z,0.87
2018-08-13T02:02:39.089Z,0.83
2018-08-13T02:05:07.364Z,0.80
2018-08-13T02:07:35.733Z,0.70
2018-08-13T02:10:04.496Z,0.70
2018-08-13T02:12:32.713Z,1.10
2018-08-13T02:15:00.893Z,2.33
2018-08-13T02:17:29.077Z,1.70
2018-08-13T02:19:57.284Z,1.50
2018-08-13T02:22:25.567Z,1.77
2018-08-13T02:24:53.761Z,1.20
2018-08-13T02:27:22.162Z,1.50
2018-08-13T02:29:50.636Z,1.73
2018-08-13T02:32:19.321Z,1.40
2018-08-13T02:34:47.505Z,1.30
2018-08-13T02:37:15.693Z,1.87
2018-08-13T02:39:43.944Z,1.53
2018-08-13T02:42:12.217Z,1.13
2018-08-13T02:44:40.593Z,1.10
2018-08-13T02:47:08.784Z,1.13
2018-08-13T02:49:37.089Z,1.33
2018-08-13T02:52:05.301Z,2.47
2018-08-13T02:54:33.489Z,1.10
2018-08-13T02:57:01.672Z,1.20
2018-08-13T02:59:30.007Z,1.10
2018-08-13T03:01:58.185Z,1.60
2018-08-13T03:04:26.389Z,1.70
2018-08-13T03:06:54.776Z,1.70
2018-08-13T03:09:23.004Z,1.27
2018-08-13T03:11:51.196Z,1.03
2018-08-13T03:14:19.392Z,0.90
2018-08-13T03:16:47.701Z,0.97
2018-08-13T03:19:15.876Z,1.17
2018-08-13T03:21:44.053Z,1.13
2018-08-13T03:24:12.267Z,1.10
2018-08-13T03:26:40.711Z,1.20
2018-08-13T03:29:08.919Z,1.23
2018-08-13T03:31:37.092Z,1.27
2018-08-13T03:34:05.267Z,2.10
2018-08-13T03:36:33.684Z,1.30
2018-08-13T03:39:02.000Z,2.23
2018-08-13T03:41:30.424Z,1.40
2018-08-13T03:43:58.615Z,1.40
2018-08-13T03:46:26.806Z,1.30
2018-08-13T03:48:55.172Z,1.73
2018-08-13T03:51:23.371Z,1.40
2018-08-13T04:02:49.171Z,2.53
2018-08-13T04:05:17.529Z,1.30
2018-08-13T04:07:45.711Z,1.57
2018-08-13T04:10:14.056Z,2.17
2018-08-13T04:12:44.146Z,1.70
2018-08-13T04:15:13.821Z,1.83
2018-08-13T04:17:42.744Z,1.77
2018-08-13T04:20:12.216Z,1.97
2018-08-13T04:22:40.649Z,2.20
2018-08-13T04:25:09.821Z,1.50
2018-08-13T04:27:38.669Z,1.80
2018-08-13T04:30:09.616Z,2.17
2018-08-13T04:32:37.856Z,2.17
2018-08-13T04:35:06.168Z,2.00
2018-08-13T04:37:34.328Z,2.37
2018-08-13T04:40:02.515Z,1.87
2018-08-13T04:42:30.785Z,2.40
2018-08-13T04:44:58.955Z,1.97
2018-08-13T04:47:27.174Z,1.70
2018-08-13T04:49:55.393Z,1.80
2018-08-13T04:52:23.573Z,1.33
2018-08-13T04:54:51.889Z,1.50
2018-08-13T04:57:20.060Z,1.47
2018-08-13T04:59:48.676Z,1.50
2018-08-13T05:02:16.938Z,2.37
2018-08-13T05:04:45.289Z,2.00
2018-08-13T05:07:13.492Z,3.07
2018-08-13T05:09:41.675Z,2.00
2018-08-13T05:12:09.851Z,2.07
2018-08-13T05:14:38.101Z,2.33
2018-08-13T05:17:06.557Z,2.63
2018-08-13T05:19:35.041Z,1.73
2018-08-13T05:22:03.239Z,1.80
2018-08-13T05:24:31.663Z,1.80
2018-08-13T05:26:59.872Z,2.07
2018-08-13T05:29:28.660Z,2.67
2018-08-13T05:31:56.851Z,1.80
2018-08-13T05:34:25.071Z,3.73
2018-08-13T05:36:53.546Z,2.10
2018-08-13T05:39:21.751Z,1.87
2018-08-13T05:41:50.568Z,1.67
2018-08-13T05:44:18.878Z,1.63
2018-08-13T05:46:47.146Z,1.33
2018-08-13T05:49:15.336Z,2.47
2018-08-13T05:51:43.507Z,1.57
2018-08-13T05:54:11.701Z,1.93
2018-08-13T05:56:40.005Z,1.30
2018-08-13T05:59:08.800Z,1.40
2018-08-13T06:01:37.282Z,1.80
2018-08-13T06:04:05.553Z,1.70
2018-08-13T06:06:33.787Z,1.33
2018-08-13T06:09:02.088Z,1.30
2018-08-13T06:11:31.090Z,2.60
2018-08-13T06:13:59.244Z,2.00
2018-08-13T06:16:27.580Z,1.30
2018-08-13T06:18:55.753Z,1.50
2018-08-13T06:21:24.051Z,1.70
2018-08-13T06:23:52.203Z,2.23
2018-08-13T06:26:20.435Z,1.40
2018-08-13T06:28:48.751Z,1.50
2018-08-13T06:31:16.956Z,2.20
2018-08-13T06:33:45.552Z,1.37
2018-08-13T06:36:13.765Z,1.90
2018-08-13T06:38:41.935Z,1.43
2018-08-13T06:41:10.777Z,3.20
2018-08-13T06:43:38.965Z,1.93
2018-08-13T06:46:07.722Z,2.17
2018-08-13T06:48:35.948Z,2.10
2018-08-13T06:51:04.257Z,1.57
2018-08-13T06:53:32.440Z,3.13
2018-08-13T06:56:00.968Z,2.93
2018-08-13T06:58:29.151Z,1.20
2018-08-13T07:00:57.389Z,2.43
2018-08-13T07:03:25.551Z,1.30
2018-08-13T07:05:53.743Z,0.83
2018-08-13T07:08:22.176Z,1.00
2018-08-13T07:10:50.353Z,1.30
2018-08-13T07:13:18.532Z,1.00
2018-08-13T07:15:46.899Z,1.10
2018-08-13T07:18:15.031Z,0.97
2018-08-13T07:20:43.445Z,1.00
2018-08-13T07:23:11.781Z,1.23
2018-08-13T07:25:39.984Z,1.30
2018-08-13T07:28:08.285Z,1.10
2018-08-13T07:30:36.710Z,1.10
2018-08-13T07:33:04.930Z,1.20
2018-08-13T07:35:33.244Z,1.00
2018-08-13T07:38:01.781Z,0.90
2018-08-13T07:40:30.116Z,1.13
2018-08-13T07:42:58.444Z,1.10
2018-08-13T07:45:26.925Z,1.27
2018-08-13T07:47:55.145Z,0.70
2018-08-13T07:50:23.356Z,1.10
2018-08-13T07:52:51.551Z,2.73
2018-08-13T07:55:20.022Z,1.27
2018-08-13T07:57:52.405Z,1.13
2018-08-13T08:00:20.604Z,1.33
2018-08-13T08:02:48.878Z,0.90
2018-08-13T08:05:17.120Z,0.97
2018-08-13T08:07:45.309Z,1.03
2018-08-13T08:10:14.760Z,1.00
2018-08-13T08:12:42.997Z,1.10
2018-08-13T08:15:13.997Z,0.90
2018-08-13T08:17:42.613Z,1.17
2018-08-13T08:20:11.007Z,0.90
2018-08-13T08:22:39.606Z,0.80
2018-08-13T08:25:10.025Z,1.13
2018-08-13T08:27:38.214Z,1.10
2018-08-13T08:30:07.019Z,2.27
2018-08-13T08:32:39.036Z,1.60
2018-08-13T08:35:10.270Z,0.97
2018-08-13T08:37:38.740Z,1.30
2018-08-13T08:40:09.653Z,2.37
2018-08-13T08:42:37.911Z,1.93
2018-08-13T08:45:08.720Z,1.40
2018-08-13T08:47:37.012Z,2.03
2018-08-13T08:50:05.500Z,1.73
2018-08-13T08:52:33.699Z,2.20
2018-08-13T08:55:01.895Z,1.90
2018-08-13T08:57:30.085Z,1.70
2018-08-13T08:59:58.264Z,1.60
2018-08-13T09:02:26.441Z,2.90
2018-08-13T09:04:54.873Z,1.80
2018-08-13T09:07:23.217Z,1.77
2018-08-13T09:09:51.393Z,2.63
2018-08-13T09:12:19.563Z,1.47
2018-08-13T09:14:47.758Z,1.70
2018-08-13T09:17:16.008Z,1.60
2018-08-13T09:19:55.532Z,2.33
2018-08-13T09:22:35.206Z,2.47
2018-08-13T09:25:14.783Z,2.90
2018-08-13T09:27:54.511Z,2.27
2018-08-13T09:30:34.042Z,2.03
2018-08-13T09:33:13.669Z,3.07
2018-08-13T09:35:41.845Z,1.77
2018-08-13T09:38:10.863Z,3.00
2018-08-13T09:40:39.048Z,1.90
2018-08-13T09:43:07.256Z,3.20
2018-08-13T09:45:35.453Z,2.00
2018-08-13T09:48:03.952Z,2.20
2018-08-13T09:50:32.164Z,2.63
2018-08-13T09:53:00.417Z,1.83
2018-08-13T09:55:28.616Z,2.50
2018-08-13T09:57:56.802Z,2.17
2018-08-13T10:00:30.228Z,2.10
2018-08-13T10:02:58.420Z,2.30
2018-08-13T10:05:26.601Z,4.23
2018-08-13T10:07:54.816Z,1.93
2018-08-13T10:10:23.007Z,2.93
2018-08-13T10:12:51.207Z,2.40
2018-08-13T10:15:19.398Z,2.60
2018-08-13T10:17:47.638Z,3.33
2018-08-13T10:20:17.665Z,2.67
2018-08-13T10:22:45.958Z,3.07
2018-08-13T10:25:14.285Z,2.63
2018-08-13T10:27:42.666Z,2.30
2018-08-13T10:30:12.400Z,1.93
2018-08-13T10:32:41.185Z,2.20
2018-08-13T10:35:09.680Z,2.00
2018-08-13T10:37:38.588Z,2.10
2018-08-13T10:40:09.040Z,1.90
2018-08-13T10:42:37.628Z,3.60
2018-08-13T10:45:06.321Z,2.03
2018-08-13T10:47:34.508Z,2.00
2018-08-13T10:50:02.878Z,2.03
2018-08-13T10:52:31.175Z,1.80
2018-08-13T10:54:59.353Z,3.07
2018-08-13T10:57:27.524Z,2.20
2018-08-13T10:59:55.740Z,3.00
2018-08-13T11:02:23.904Z,2.23
2018-08-13T11:04:52.177Z,4.20
2018-08-13T11:07:20.485Z,4.27
2018-08-13T11:09:49.055Z,3.80
2018-08-13T11:12:17.655Z,1.70
2018-08-13T11:14:45.824Z,2.00
2018-08-13T11:17:14.092Z,1.93
2018-08-13T11:19:42.464Z,2.17
2018-08-13T11:22:10.772Z,2.37
2018-08-13T11:24:39.138Z,2.30
2018-08-13T11:27:12.525Z,2.30
2018-08-13T11:29:42.023Z,2.70
2018-08-13T11:32:10.396Z,2.67
2018-08-13T11:34:38.867Z,3.20
2018-08-13T11:37:07.131Z,3.23
2018-08-13T11:39:35.322Z,3.57
2018-08-13T11:42:03.517Z,3.40
2018-08-13T11:44:31.764Z,3.83
2018-08-13T11:46:59.935Z,3.40
2018-08-13T11:49:28.101Z,3.40
2018-08-13T11:51:56.269Z,3.30
2018-08-13T11:54:24.485Z,3.20
2018-08-13T11:56:52.680Z,3.07
2018-08-13T11:59:20.859Z,3.70
2018-08-13T12:01:49.140Z,2.90
2018-08-13T12:04:17.316Z,3.53
2018-08-13T12:06:45.489Z,2.93
2018-08-13T12:09:14.237Z,2.77
2018-08-13T12:11:42.524Z,4.23
2018-08-13T12:14:10.876Z,3.23
2018-08-13T12:16:39.042Z,3.93
2018-08-13T12:19:07.381Z,4.20
2018-08-13T12:21:35.996Z,3.73
2018-08-13T12:24:04.341Z,3.83
2018-08-13T12:26:32.590Z,4.27
2018-08-13T12:29:01.179Z,4.77
2018-08-13T12:31:33.286Z,4.83
2018-08-13T12:34:01.508Z,4.03
2018-08-13T12:36:29.685Z,4.27
2018-08-13T12:38:57.928Z,4.43
2018-08-13T12:41:26.345Z,3.53
2018-08-13T12:43:54.521Z,3.73
2018-08-13T12:46:22.726Z,4.97
2018-08-13T12:48:50.927Z,3.87
2018-08-13T12:51:19.105Z,3.03
2018-08-13T12:53:47.281Z,3.90
2018-08-13T12:56:15.487Z,4.00
2018-08-13T12:58:43.740Z,3.87
2018-08-13T13:01:11.959Z,3.77
2018-08-13T13:03:40.745Z,3.80
2018-08-13T13:06:08.923Z,3.40
2018-08-13T13:08:37.100Z,3.83
2018-08-13T13:11:05.389Z,4.53
2018-08-13T13:13:33.567Z,3.20
2018-08-13T13:16:01.764Z,2.93
2018-08-13T13:18:29.973Z,3.87
2018-08-13T13:20:58.141Z,6.13
2018-08-13T13:23:26.349Z,3.27
2018-08-13T13:25:54.570Z,2.07
2018-08-13T13:28:22.784Z,3.00
2018-08-13T13:30:51.196Z,3.67
2018-08-13T13:33:19.367Z,2.13
2018-08-13T13:35:47.545Z,2.63
2018-08-13T13:38:15.711Z,2.73
2018-08-13T13:40:43.896Z,3.70
2018-08-13T13:43:12.333Z,2.10
2018-08-13T13:45:40.508Z,3.50
2018-08-13T13:48:08.704Z,2.20
2018-08-13T13:50:37.042Z,2.37
2018-08-13T13:53:05.243Z,2.53
2018-08-13T13:55:33.652Z,1.93
2018-08-13T13:58:01.913Z,2.30
2018-08-13T14:00:30.170Z,2.00
2018-08-13T14:02:58.341Z,2.00
2018-08-13T14:05:31.134Z,2.20
2018-08-13T14:07:59.309Z,3.67
2018-08-13T14:10:27.528Z,2.03
2018-08-13T14:12:55.716Z,3.27
2018-08-13T14:15:23.970Z,2.03
2018-08-13T14:17:52.284Z,1.77
2018-08-13T14:20:20.484Z,2.13
2018-08-13T14:22:48.689Z,2.07
2018-08-13T14:25:16.864Z,1.90
2018-08-13T14:27:45.056Z,1.53
2018-08-13T14:30:20.649Z,1.53
2018-08-13T14:32:49.208Z,1.23
2018-08-13T14:35:18.405Z,1.50
2018-08-13T14:37:46.677Z,1.53
2018-08-13T14:40:14.909Z,1.47
2018-08-13T14:42:43.515Z,2.77
2018-08-13T14:45:13.142Z,2.10
2018-08-13T14:47:42.667Z,2.53
2018-08-13T14:50:11.553Z,2.87
2018-08-13T14:52:40.913Z,1.70
2018-08-13T14:55:09.129Z,2.33
2018-08-13T14:57:37.369Z,1.90
2018-08-13T15:00:13.632Z,1.20
2018-08-13T15:02:41.809Z,1.40
2018-08-13T15:05:10.703Z,1.67
2018-08-13T15:07:39.098Z,1.73
2018-08-13T15:10:09.924Z,1.30
2018-08-13T15:12:38.133Z,1.47
2018-08-13T15:15:08.639Z,1.63
2018-08-13T15:17:36.853Z,1.70
2018-08-13T15:20:05.497Z,1.67
2018-08-13T15:22:34.082Z,2.83
2018-08-13T15:25:02.278Z,2.13
2018-08-13T15:27:30.568Z,2.00
2018-08-13T15:29:58.697Z,2.67
2018-08-13T15:32:26.891Z,2.27
2018-08-13T15:34:55.152Z,2.87
2018-08-13T15:37:23.340Z,3.13
2018-08-13T15:39:51.529Z,2.33
2018-08-13T15:42:19.744Z,2.57
2018-08-13T15:44:47.940Z,2.70
2018-08-13T15:47:16.304Z,2.80
2018-08-13T15:49:44.497Z,2.30
2018-08-13T15:52:12.783Z,2.43
2018-08-13T15:54:40.964Z,3.10
2018-08-13T15:57:09.182Z,3.17
2018-08-13T15:59:37.365Z,2.57
2018-08-13T16:02:05.597Z,2.70
2018-08-13T16:04:34.413Z,2.43
2018-08-13T16:07:03.001Z,2.93
2018-08-13T16:09:31.177Z,2.13
2018-08-13T16:11:59.344Z,2.47
2018-08-13T16:14:27.529Z,1.70
2018-08-13T16:16:55.720Z,2.23
2018-08-13T16:19:23.902Z,1.80
2018-08-13T16:21:52.383Z,1.70
2018-08-13T16:24:20.674Z,1.83
2018-08-13T16:26:49.468Z,1.60
2018-08-13T16:29:17.679Z,2.40
2018-08-13T16:31:45.960Z,1.47
2018-08-13T16:34:14.165Z,1.97
2018-08-13T16:36:42.387Z,1.27
2018-08-13T16:39:11.505Z,1.60
2018-08-13T16:41:39.803Z,1.67
2018-08-13T16:44:08.040Z,1.20
2018-08-13T16:46:36.239Z,2.03
2018-08-13T16:49:04.481Z,1.03
2018-08-13T16:51:32.771Z,1.60
2018-08-13T16:54:01.013Z,1.50
2018-08-13T16:56:29.217Z,1.80
2018-08-13T16:58:57.452Z,2.03
2018-08-13T17:01:25.669Z,1.30
2018-08-13T17:03:53.893Z,1.30
2018-08-13T17:06:22.122Z,1.43
2018-08-13T17:08:50.342Z,1.43
2018-08-13T17:11:18.530Z,1.27
2018-08-13T17:13:46.796Z,2.40
2018-08-13T17:16:14.913Z,1.20
2018-08-13T17:18:43.107Z,1.10
2018-08-13T17:21:11.342Z,1.53
2018-08-13T17:23:39.539Z,1.00
2018-08-13T17:26:07.932Z,1.23
2018-08-13T17:28:36.198Z,1.27
2018-08-13T17:31:04.389Z,1.00
2018-08-13T17:33:32.585Z,1.40
2018-08-13T17:36:00.774Z,1.53
2018-08-13T17:38:28.997Z,1.10
2018-08-13T17:40:57.188Z,1.20
2018-08-13T17:43:25.402Z,1.13
2018-08-13T17:45:53.636Z,1.30
2018-08-13T17:48:21.837Z,2.00
2018-08-13T17:50:50.009Z,1.40
2018-08-13T17:53:18.219Z,1.77
2018-08-13T17:55:46.544Z,1.80
2018-08-13T17:58:14.745Z,1.77
2018-08-13T18:00:43.005Z,1.37
2018-08-13T18:03:11.203Z,1.13
2018-08-13T18:05:39.381Z,1.60
2018-08-13T18:08:07.783Z,2.57
2018-08-13T18:10:35.990Z,1.37
2018-08-13T18:13:06.324Z,1.63
2018-08-13T18:15:34.514Z,1.63
2018-08-13T18:18:02.976Z,1.77
2018-08-13T18:20:31.184Z,1.80
2018-08-13T18:22:59.400Z,1.20
2018-08-13T18:25:27.601Z,1.43
2018-08-13T18:27:55.801Z,2.57
2018-08-13T18:30:25.228Z,1.50
2018-08-13T18:32:53.795Z,1.40
2018-08-13T18:35:22.071Z,2.37
2018-08-13T18:37:50.416Z,1.93
2018-08-13T18:40:22.738Z,1.87
2018-08-13T18:42:51.120Z,1.30
2018-08-13T18:45:19.312Z,1.43
2018-08-13T18:47:48.244Z,1.30
2018-08-13T18:50:18.404Z,1.47
2018-08-13T18:52:46.750Z,1.10
2018-08-13T18:55:19.404Z,1.40
2018-08-13T18:57:47.858Z,1.40
2018-08-13T19:00:17.670Z,1.73
2018-08-13T19:02:46.247Z,2.10
2018-08-13T19:05:15.511Z,1.93
2018-08-13T19:07:44.555Z,1.57
2018-08-13T19:10:13.709Z,1.50
2018-08-13T19:12:42.000Z,1.57
2018-08-13T19:15:11.926Z,1.20
2018-08-13T19:17:40.429Z,2.73
2018-08-13T19:20:10.264Z,1.50
2018-08-13T19:22:38.484Z,1.60
2018-08-13T19:25:09.311Z,1.50
2018-08-13T19:27:37.532Z,1.43
2018-08-13T19:30:06.229Z,1.50
2018-08-13T19:32:34.427Z,1.40
2018-08-13T19:35:02.621Z,1.40
2018-08-13T19:37:30.983Z,1.70
2018-08-13T19:39:59.168Z,3.20
2018-08-13T19:42:27.352Z,1.47
2018-08-13T19:44:55.548Z,1.77
2018-08-13T19:47:23.744Z,2.10
2018-08-13T19:49:51.956Z,1.70
2018-08-13T19:52:20.090Z,1.20
2018-08-13T19:54:48.498Z,1.83
2018-08-13T19:57:16.689Z,2.03
2018-08-13T19:59:45.117Z,2.50
2018-08-13T20:02:13.311Z,1.87
2018-08-13T20:04:41.516Z,1.77
2018-08-13T20:07:09.685Z,2.60
2018-08-13T20:09:38.072Z,2.57
2018-08-13T20:12:06.552Z,1.90
2018-08-13T20:14:34.884Z,2.33
2018-08-13T20:17:03.065Z,3.13
2018-08-13T20:19:31.307Z,2.03
2018-08-13T20:21:59.474Z,2.20
2018-08-13T20:24:27.702Z,2.10
2018-08-13T20:26:55.914Z,2.27
2018-08-13T20:29:24.250Z,2.33
2018-08-13T20:31:52.472Z,2.67
2018-08-13T20:34:20.724Z,1.90
2018-08-13T20:36:48.925Z,2.10
2018-08-13T20:39:17.149Z,1.70
2018-08-13T20:41:45.376Z,1.53
2018-08-13T20:44:13.780Z,2.27
2018-08-13T20:46:42.856Z,2.27
2018-08-13T20:49:11.114Z,1.97
2018-08-13T20:51:39.284Z,2.20
2018-08-13T20:54:07.781Z,1.97
2018-08-13T20:56:36.141Z,1.90
2018-08-13T20:59:04.472Z,1.77
2018-08-13T21:01:33.040Z,1.80
2018-08-13T21:04:01.247Z,1.50
2018-08-13T21:06:29.467Z,2.00
2018-08-13T21:08:57.993Z,1.57
2018-08-13T21:11:26.285Z,1.60
2018-08-13T21:13:54.850Z,1.60
2018-08-13T21:16:23.169Z,2.73
2018-08-13T21:18:51.358Z,2.03
2018-08-13T21:21:19.601Z,1.80
2018-08-13T21:23:47.820Z,2.33
2018-08-13T21:26:16.009Z,1.90
2018-08-13T21:28:44.191Z,2.60
2018-08-13T21:31:12.507Z,2.30
2018-08-13T21:33:42.138Z,2.00
2018-08-13T21:36:10.533Z,1.80
2018-08-13T21:38:38.714Z,2.10
2018-08-13T21:41:07.064Z,1.67
2018-08-13T21:43:35.311Z,1.87
2018-08-13T21:46:03.504Z,2.00
2018-08-13T21:48:31.814Z,1.77
2018-08-13T21:51:00.303Z,2.27
2018-08-13T21:53:28.665Z,2.73
2018-08-13T21:55:56.856Z,2.97
2018-08-13T21:58:25.298Z,2.50
2018-08-13T22:00:58.870Z,2.83
2018-08-13T22:03:27.056Z,3.40
2018-08-13T22:05:55.243Z,2.93
2018-08-13T22:08:23.497Z,3.23
2018-08-13T22:10:51.708Z,3.47
2018-08-13T22:13:20.080Z,3.43
2018-08-13T22:15:48.287Z,2.77
2018-08-13T22:18:16.598Z,3.37
2018-08-13T22:20:44.945Z,3.47
2018-08-13T22:23:13.243Z,4.00
2018-08-13T22:25:43.927Z,3.43
2018-08-13T22:28:14.329Z,3.00
2018-08-13T22:30:42.767Z,3.23
2018-08-13T22:33:11.869Z,3.30
2018-08-13T22:35:40.232Z,4.83
2018-08-13T22:38:08.964Z,3.20
2018-08-13T22:40:37.647Z,3.77
2018-08-13T22:43:06.567Z,3.53
2018-08-13T22:45:34.752Z,3.23
2018-08-13T22:48:03.404Z,3.10
2018-08-13T22:50:31.745Z,5.03
2018-08-13T22:53:00.025Z,4.43
2018-08-13T22:55:29.112Z,4.07
2018-08-13T22:57:57.325Z,3.47
2018-08-13T23:00:25.512Z,3.50
2018-08-13T23:02:53.836Z,4.27
2018-08-13T23:05:23.476Z,4.37
2018-08-13T23:07:51.736Z,4.03
2018-08-13T23:10:21.227Z,3.60
2018-08-13T23:12:52.661Z,4.00
2018-08-13T23:15:20.984Z,4.73
2018-08-13T23:17:49.298Z,4.77
2018-08-13T23:20:20.373Z,3.73
2018-08-13T23:22:52.533Z,3.87
2018-08-13T23:25:21.070Z,4.00
2018-08-13T23:27:50.415Z,4.17
2018-08-13T23:30:18.677Z,5.00
2018-08-13T23:32:47.965Z,4.70
2018-08-13T23:35:17.053Z,6.60
2018-08-13T23:37:45.261Z,4.60
2018-08-13T23:40:13.436Z,9.13
2018-08-13T23:42:41.644Z,7.93
2018-08-13T23:45:11.748Z,6.07
2018-08-13T23:47:39.944Z,7.83
2018-08-13T23:50:09.992Z,6.40
2018-08-13T23:52:38.985Z,6.37
2018-08-13T23:55:08.880Z,7.37
2018-08-13T23:57:37.061Z,6.50
